^^
Datos históricos de la estación: Murcia-Puente Tocinos
Diario Informe para Junio 16, 2021 Unidades:  Ingés    Métrico   Ambas
Diario Semanal Mensual Anual
  Máxima: Mínima: Promedio:
Temperatura: 88.3 °F 73.4 °F 79 °F
Punto de rocio: 68 °F 57.4 °F 61 °F
Humedad: 77% 40.2% 55%
Velocidad viento: 11.4mph 0mph 4.5mph
Racha viento: 19.6mph - -
Viento- - Sur
Presión: 29.9 in 29.8 in -
Precipitación: 0 in    
 
 
Tabla de datos para Junio 16, 2021
Hora Temperatura Punto de rocio Presión Viento Velocidad viento Racha viento Humedad Intensidad lluvia(por hora) Nubes
00:04 78.1 °F 59 °F 29.9 in ESE 3.1 mph 4 mph 52% 0 in
00:09 78.1 °F 59 °F 29.9 in ESE 2.4 mph 2.4 mph 52% 0 in
00:14 78.1 °F 59 °F 29.9 in ESE 1.8 mph 2.3 mph 52% 0 in
00:19 77.9 °F 59.2 °F 29.9 in Este 1.6 mph 3.6 mph 52.5% 0 in
00:24 77.9 °F 59.4 °F 29.9 in NO 1.4 mph 4 mph 53% 0 in
00:29 77.7 °F 59.2 °F 29.9 in ONO 2 mph 4.6 mph 53% 0 in
00:30 77.7 °F 59.2 °F 29.9 in ONO 2.4 mph 5 mph 53% 0 in
00:39 77.7 °F 59.2 °F 29.9 in ONO 2.4 mph 3.5 mph 53% 0 in
00:44 77.7 °F 59.4 °F 29.9 in ONO 2.4 mph 3 mph 53% 0 in
00:49 77.9 °F 59.4 °F 29.9 in ONO 1 mph   53% 0 in
00:54 77.9 °F 59.4 °F 29.9 in Calm     53% 0 in
00:59 77.9 °F 59.5 °F 29.9 in Calm     53.2% 0 in
01:04 77.9 °F 59.7 °F 29.9 in Calm     53.8% 0 in
01:14 77.5 °F 59.5 °F 29.9 in Calm   2.4 mph 54% 0 in
01:19 77.5 °F 59.5 °F 29.9 in ONO 1.2 mph 2.3 mph 54% 0 in
01:24 77.5 °F 59.5 °F 29.9 in ONO 2 mph 3.1 mph 54% 0 in
01:29 77.4 °F 59.9 °F 29.9 in North 1.9 mph 4.7 mph 55% 0 in
01:34 77.4 °F 59.9 °F 29.9 in Este 1.8 mph 3.6 mph 55% 0 in
01:39 77.4 °F 59.9 °F 29.9 in Este 2.2 mph 2.9 mph 55.2% 0 in
01:44 77.2 °F 60.3 °F 29.9 in Este 2.4 mph 4 mph 56% 0 in
01:49 76.8 °F 59.9 °F 29.9 in OSO 2.2 mph 6.2 mph 56.1% 0 in
01:54 76.6 °F 60.3 °F 29.9 in OSO 2 mph 6.2 mph 57% 0 in
01:59 76.5 °F 60.1 °F 29.9 in SE 2.7 mph 6 mph 57% 0 in
02:04 76.5 °F 60.1 °F 29.9 in ENE 3.1 mph 6 mph 57% 0 in
02:09 76.5 °F 60.1 °F 29.9 in Oeste 2.7 mph 4.6 mph 57% 0 in
02:14 76.5 °F 60.3 °F 29.9 in SO 2.4 mph 5.2 mph 57% 0 in
02:19 76.6 °F 60.3 °F 29.9 in SO 2.7 mph 5 mph 56.9% 0 in
02:24 76.8 °F 59.9 °F 29.9 in OSO 2.9 mph 5.8 mph 56% 0 in
02:29 76.8 °F 59.7 °F 29.9 in Oeste 3.4 mph 8.5 mph 55.6% 0 in
02:34 77.2 °F 59.7 °F 29.9 in Oeste 3.6 mph 9 mph 55% 0 in
02:39 77 °F 59.4 °F 29.9 in SSO 3.9 mph 9 mph 54.6% 0 in
02:44 76.8 °F 58.8 °F 29.9 in SSO 4 mph 5.2 mph 54% 0 in
02:49 76.6 °F 58.8 °F 29.9 in SSE 3.4 mph 5 mph 54% 0 in
02:54 76.6 °F 59 °F 29.9 in ESE 2.9 mph 7.4 mph 54.7% 0 in
02:59 76.3 °F 59.4 °F 29.9 in Este 3.4 mph 7.6 mph 56% 0 in
03:04 75.6 °F 59.4 °F 29.9 in Este 3.6 mph 8.1 mph 57.3% 0 in
03:09 75 °F 59.4 °F 29.9 in ESE 4.5 mph 8.1 mph 58% 0 in
03:14 75 °F 59.2 °F 29.8 in SSO 5.2 mph 8 mph 58% 0 in
03:19 75.2 °F 59.5 °F 29.8 in Oeste 4 mph 8.7 mph 58% 0 in
03:24 75.6 °F 59.4 °F 29.9 in ONO 3.1 mph 11.8 mph 57.1% 0 in
03:29 75.7 °F 59.2 °F 29.9 in ONO 4.3 mph 9.2 mph 56.2% 0 in
03:34 76.1 °F 59.2 °F 29.9 in ONO 5.4 mph 11.5 mph 56% 0 in
03:39 75.9 °F 59.2 °F 29.9 in ONO 5.9 mph 12 mph 56.1% 0 in
03:44 75.9 °F 59.5 °F 29.9 in ONO 6.2 mph 10 mph 57% 0 in
03:49 75.7 °F 59.4 °F 29.9 in ONO 5 mph 7 mph 57% 0 in
03:54 75.6 °F 59.4 °F 29.9 in NO 4.3 mph 6 mph 57% 0 in
03:59 75.6 °F 59.5 °F 29.9 in NO 3.5 mph 6.9 mph 57.9% 0 in
04:04 75.4 °F 59.5 °F 29.9 in NO 3.1 mph 7 mph 58% 0 in
04:09 75.2 °F 59.4 °F 29.9 in NO 3 mph 5 mph 58% 0 in
04:14 75 °F 59.2 °F 29.9 in SO 2.9 mph 4.6 mph 58% 0 in
04:19 75 °F 59.2 °F 29.9 in SSO 2.6 mph 5.2 mph 58.1% 0 in
04:24 74.8 °F 59.5 °F 29.9 in ESE 2.4 mph 6.2 mph 59.2% 0 in
04:29 74.3 °F 59.4 °F 29.9 in SSE 2.8 mph 6 mph 60% 0 in
04:34 73.9 °F 59.4 °F 29.9 in SSO 3.1 mph 4.6 mph 60.3% 0 in
04:39 73.9 °F 59.5 °F 29.9 in SSO 2.7 mph 5 mph 61% 0 in
04:44 73.9 °F 59.5 °F 29.9 in SSO 2.4 mph 5 mph 61% 0 in
04:49 73.9 °F 59.2 °F 29.9 in SO 2.7 mph 5 mph 60% 0 in
04:54 73.9 °F 59.2 °F 29.9 in OSO 2.9 mph 5 mph 60% 0 in
04:59 74.1 °F 59.4 °F 29.9 in OSO 3 mph 5.9 mph 60% 0 in
05:04 74.1 °F 59.4 °F 29.9 in OSO 3.1 mph 6.9 mph 60% 0 in
05:09 74.1 °F 59 °F 29.9 in Oeste 3.4 mph 7 mph 59.3% 0 in
05:14 74.5 °F 59.2 °F 29.9 in OSO 3.6 mph 6 mph 59% 0 in
05:19 74.5 °F 59.2 °F 29.9 in OSO 3.6 mph 6.2 mph 59% 0 in
05:24 74.7 °F 59.4 °F 29.9 in SSO 3.6 mph 6 mph 59% 0 in
05:29 74.7 °F 59.4 °F 29.9 in SSE 3.3 mph 5 mph 59% 0 in
05:34 74.5 °F 59.2 °F 29.9 in OSO 3.1 mph 6.2 mph 59% 0 in
05:39 74.5 °F 59.2 °F 29.9 in OSO 3.4 mph 6 mph 59% 0 in
05:44 74.5 °F 59.2 °F 29.8 in SO 3.6 mph 5.8 mph 59% 0 in
05:49 74.5 °F 59.2 °F 29.8 in SO 3.6 mph 6 mph 59% 0 in
05:54 74.5 °F 59.2 °F 29.8 in SO 3.6 mph 6.2 mph 59% 0 in
05:59 74.3 °F 59 °F 29.8 in SO 3.9 mph 6.9 mph 59% 0 in
06:04 74.3 °F 59 °F 29.8 in SO 4 mph 7 mph 59% 0 in
06:09 74.1 °F 59 °F 29.8 in OSO 4 mph 6.9 mph 59.2% 0 in
06:14 73.9 °F 59.2 °F 29.8 in OSO 4 mph 7.4 mph 60% 0 in
06:19 73.9 °F 59.2 °F 29.8 in SO 4.5 mph 7 mph 60% 0 in
06:24 73.9 °F 59 °F 29.8 in OSO 4.7 mph 6 mph 59.7% 0 in
06:29 73.9 °F 58.8 °F 29.8 in OSO 4.1 mph 5.8 mph 59.2% 0 in
06:34 73.8 °F 58.6 °F 29.8 in OSO 3.6 mph 4.6 mph 59.1% 0 in
06:39 73.8 °F 58.5 °F 29.8 in SO 3.3 mph 5.2 mph 59% 0 in
06:44 73.8 °F 58.5 °F 29.8 in OSO 3.1 mph 5.9 mph 59% 0 in
06:49 73.8 °F 58.3 °F 29.8 in OSO 3.6 mph 6 mph 58.5% 0 in
06:54 73.8 °F 58.5 °F 29.8 in OSO 4 mph 7.6 mph 58.8% 0 in
06:59 73.6 °F 58.5 °F 29.8 in OSO 4.5 mph 8.1 mph 59% 0 in
07:04 73.6 °F 58.3 °F 29.8 in OSO 4.7 mph 9.2 mph 59% 0 in
07:09 73.4 °F 58.5 °F 29.8 in OSO 5 mph 9 mph 59.7% 0.05 in
07:14 73.4 °F 58.6 °F 29.8 in OSO 5.2 mph 8 mph 60% 0.05 in
07:19 73.4 °F 58.5 °F 29.8 in Oeste 4.9 mph 6.9 mph 59.4% 0.05 in
07:24 73.6 °F 58.5 °F 29.8 in Oeste 4.7 mph 8.5 mph 59% 0.05 in
07:29 73.8 °F 58.1 °F 29.8 in Oeste 4.5 mph 9 mph 58% 0.05 in
07:34 73.9 °F 58.3 °F 29.8 in Oeste 4.3 mph 6.9 mph 58% 0.05 in
07:39 74.1 °F 58.3 °F 29.8 in ONO 3.5 mph 7 mph 58% 0.05 in
07:44 74.1 °F 58.5 °F 29.8 in Oeste 3.1 mph 5 mph 58% 0.05 in
07:49 74.5 °F 58.6 °F 29.8 in Oeste 2.7 mph 5 mph 58% 0.05 in
07:54 74.7 °F 58.6 °F 29.8 in Oeste 2.4 mph 5 mph 57.9% 0.05 in
07:59 74.7 °F 59 °F 29.8 in ONO 2.7 mph 5 mph 58% 0.05 in
08:04 74.8 °F 58.8 °F 29.8 in ONO 2.9 mph 5 mph 57.5% 0 in
08:09 75 °F 59 °F 29.8 in ONO 2.4 mph 5.2 mph 57.3% 0.05 in
08:14 75.4 °F 59.5 °F 29.8 in NO 2 mph 5 mph 58% 0 in
08:19 75.6 °F 59 °F 29.8 in NO 2 mph 5.9 mph 56.6% 0 in
08:24 75.6 °F 58.5 °F 29.8 in NO 2 mph 5.9 mph 55.1% 0 in
08:29 75.7 °F 58.3 °F 29.8 in ONO 2.9 mph 5.9 mph 54.6% 0 in
08:34 75.9 °F 58.1 °F 29.8 in Oeste 3.6 mph 7.4 mph 54% 0 in
08:39 76.1 °F 58.3 °F 29.8 in OSO 4 mph 7 mph 54% 0 in
08:44 76.3 °F 58.3 °F 29.8 in OSO 4.3 mph 8.1 mph 53.7% 0 in
08:49 76.3 °F 57.9 °F 29.8 in OSO 5 mph 10.4 mph 53.1% 0 in
08:54 76.3 °F 57.9 °F 29.8 in OSO 5.4 mph 10.4 mph 53% 0 in
08:59 76.3 °F 57.9 °F 29.8 in OSO 6.1 mph 10.4 mph 53% 0 in
09:04 76.3 °F 57.9 °F 29.8 in OSO 6.4 mph 10 mph 53% 0 in
09:09 76.5 °F 58.1 °F 29.8 in Oeste 5.5 mph 7 mph 53% 0 in
09:14 76.5 °F 58.1 °F 29.8 in Oeste 4.7 mph 8.1 mph 53% 0 in
09:19 76.6 °F 58.1 °F 29.8 in Oeste 4.5 mph 8 mph 53% 0 in
09:24 76.6 °F 58.3 °F 29.9 in Oeste 4.3 mph 8.1 mph 53% 0.01 in
09:29 76.6 °F 58.3 °F 29.9 in Oeste 4.8 mph 8.1 mph 53.1% 0.01 in
09:34 76.6 °F 58.6 °F 29.9 in Oeste 5.2 mph 9.7 mph 53.9% 0.01 in
09:39 76.8 °F 58.6 °F 29.9 in Oeste 4.7 mph 10 mph 53.3% 0.01 in
09:44 76.6 °F 58.5 °F 29.9 in OSO 4.3 mph 9.2 mph 53.5% 0.01 in
09:49 76.6 °F 58.6 °F 29.9 in OSO 4.9 mph 10.2 mph 54% 0.01 in
09:54 76.5 °F 58.6 °F 29.9 in Oeste 5.4 mph 10.4 mph 54% 0.01 in
09:59 76.5 °F 58.5 °F 29.9 in Oeste 5.7 mph 10.4 mph 53.6% 0.01 in
10:04 76.6 °F 58.5 °F 29.9 in Oeste 5.9 mph 10 mph 53.4% 0.01 in
10:09 76.8 °F 58.5 °F 29.9 in ONO 5.6 mph 8.1 mph 53% 0.01 in
10:14 77.2 °F 58.6 °F 29.9 in NO 5.4 mph 8.7 mph 53% 0.01 in
10:19 77.4 °F 58.8 °F 29.9 in ONO 5 mph 9.2 mph 53% 0.01 in
10:24 77.4 °F 58.6 °F 29.9 in ONO 4.7 mph 9 mph 52.4% 0.01 in
10:29 77.4 °F 58.8 °F 29.9 in ONO 4.5 mph 9 mph 52.7% 0 in
10:34 77.5 °F 59.2 °F 29.9 in OSO 4.3 mph 7 mph 53% 0 in
10:39 77.5 °F 59.2 °F 29.9 in OSO 4.3 mph 6.9 mph 53% 0 in
10:44 77.7 °F 59.2 °F 29.9 in OSO 4.3 mph 11.8 mph 53% 0 in
10:49 77.7 °F 59.2 °F 29.9 in OSO 5.4 mph 10.4 mph 53% 0 in
10:54 77.7 °F 59.2 °F 29.9 in OSO 6.2 mph 6.9 mph 53% 0 in
10:59 77.9 °F 59.4 °F 29.9 in ONO 4.8 mph 7 mph 53% 0.03 in
11:04 78.1 °F 59.5 °F 29.9 in North 4 mph 6 mph 53% 0.03 in
11:09 78.1 °F 60.1 °F 29.9 in NNE 3.8 mph 6.2 mph 53.9% 0.03 in
11:14 78.3 °F 59.7 °F 29.9 in NNE 3.6 mph 10 mph 53.1% 0.03 in
11:19 78.4 °F 59.9 °F 29.9 in North 4.6 mph 13 mph 53% 0.06 in
11:24 78.8 °F 59.5 °F 29.9 in NNE 5.2 mph 11.4 mph 51.8% 9.58 in
11:29 79.3 °F 59.2 °F 29.9 in NNE 4.5 mph 12 mph 50.4% 9.58 in
11:34 79.7 °F 59.4 °F 29.9 in NNE 4 mph 5.2 mph 49.8% 9.58 in
11:39 80.2 °F 58.6 °F 29.9 in Este 2.9 mph 6.9 mph 48% 9.58 in
11:44 80.6 °F 57.6 °F 29.9 in North 2 mph 7 mph 45.6% 9.58 in
11:49 81.1 °F 57.7 °F 29.9 in North 3 mph 9.2 mph 45% 9.58 in
11:54 81.5 °F 57.7 °F 29.9 in NNE 3.6 mph 7.4 mph 44.3% 9.58 in
11:59 81.9 °F 57.4 °F 29.9 in NNE 4 mph 8.5 mph 43.2% 9.58 in
12:04 81.9 °F 57.7 °F 29.9 in ENE 4.3 mph 9.2 mph 44% 9.55 in
12:09 81.7 °F 58.1 °F 29.9 in Este 4.5 mph 9.7 mph 44.8% 9.55 in
12:14 81.5 °F 59.4 °F 29.8 in Este 4.7 mph 8.1 mph 47% 9.55 in
12:19 81.5 °F 59.7 °F 29.8 in OSO 4.3 mph 8 mph 47.9% 9.55 in
12:24 81.3 °F 59.7 °F 29.8 in OSO 4 mph 4.6 mph 47.9% 9.52 in
12:29 81.5 °F 58.6 °F 29.8 in SE 3.1 mph 9.2 mph 46% 0 in
12:34 81.5 °F 58.8 °F 29.8 in ENE 2.4 mph 13.8 mph 46.1% 0 in
12:39 81.3 °F 59.2 °F 29.8 in Este 5.4 mph 15 mph 47.1% 0 in
12:44 81.1 °F 59.7 °F 29.8 in Este 7.6 mph 15 mph 48% 0 in
12:49 81.3 °F 59.7 °F 29.8 in Oeste 7.1 mph 14 mph 48% 0 in
12:54 81.7 °F 60.1 °F 29.8 in NO 6.9 mph 7 mph 48% 0 in
12:59 81.9 °F 59.5 °F 29.8 in Sur 3.9 mph 5 mph 46.8% 0 in
13:04 82.2 °F 59.4 °F 29.8 in SSE 2.4 mph 6.2 mph 46% 0 in
13:09 82.4 °F 59.5 °F 29.8 in SO 2.8 mph 7.4 mph 46% 0 in
13:14 82.4 °F 59.9 °F 29.8 in SO 3.1 mph 8.1 mph 46.6% 0 in
13:19 82.2 °F 59.4 °F 29.8 in SO 3.8 mph 5.8 mph 46% 0 in
13:24 82.6 °F 59.7 °F 29.8 in SO 4.3 mph 6.9 mph 46% 0 in
13:29 82.8 °F 59.7 °F 29.8 in OSO 3.9 mph 6.9 mph 46% 0 in
13:34 82.9 °F 59.7 °F 29.8 in ONO 3.6 mph 4.6 mph 45.4% 0 in
13:39 83.7 °F 59.9 °F 29.8 in SSO 2.9 mph 7.6 mph 45% 0 in
13:44 83.8 °F 59.7 °F 29.8 in ENE 2.4 mph 10.4 mph 44.3% 0 in
13:49 83.7 °F 60.1 °F 29.8 in Este 4.1 mph 9.2 mph 45% 0 in
13:54 83.8 °F 60.4 °F 29.8 in Este 5.4 mph 9.2 mph 45.1% 0 in
13:59 84.2 °F 60.4 °F 29.8 in Este 5.3 mph 9 mph 45% 0 in
14:04 84.6 °F 60.8 °F 29.8 in ESE 5.2 mph 9.2 mph 45% 0 in
14:09 84.6 °F 60.6 °F 29.8 in ENE 5.3 mph 9.2 mph 44.5% 0 in
14:14 84.7 °F 60.4 °F 29.8 in NNE 5.4 mph 9 mph 44.3% 0 in
14:19 85.1 °F 60.6 °F 29.8 in ENE 4.8 mph 8 mph 43.9% 0 in
14:24 85.5 °F 60.4 °F 29.8 in SE 4.3 mph 6.9 mph 43% 0 in
14:29 85.8 °F 59.9 °F 29.8 in SE 3.6 mph 12.7 mph 41.7% 0 in
14:34 85.8 °F 59.9 °F 29.8 in Este 3.1 mph 13 mph 41.6% 0 in
14:39 85.8 °F 59.7 °F 29.8 in ESE 4.4 mph 9.2 mph 41.4% 0 in
14:44 86 °F 59.7 °F 29.8 in Este 5.4 mph 9 mph 41.3% 0 in
14:49 86.5 °F 60.1 °F 29.8 in ESE 4.2 mph 10.4 mph 41.1% 0 in
14:54 87.3 °F 60.8 °F 29.8 in ESE 3.6 mph 10.4 mph 40.9% 0 in
14:59 87.8 °F 61 °F 29.8 in SE 4.3 mph 10 mph 40.6% 0 in
15:04 88.2 °F 61.3 °F 29.8 in SE 4.7 mph 10.4 mph 40.7% 0 in
15:09 88.3 °F 61.3 °F 29.8 in SE 4.7 mph 15.2 mph 40.6% 0 in
15:14 88.2 °F 61.5 °F 29.8 in ESE 4.7 mph 15 mph 41% 0.01 in
15:19 87.6 °F 61.3 °F 29.8 in SE 5.4 mph 8.7 mph 41.4% 0.01 in
15:24 87.4 °F 61.3 °F 29.8 in SSE 5.9 mph 10.4 mph 41.7% 0.01 in
15:29 87.6 °F 61.5 °F 29.8 in SSE 5.5 mph 12.7 mph 41.8% 0.02 in
15:34 87.6 °F 61 °F 29.8 in Sur 5.2 mph 13 mph 41% 0.02 in
15:39 87.8 °F 61.2 °F 29.8 in SSE 5.8 mph 13.8 mph 40.8% 0.05 in
15:44 88 °F 60.8 °F 29.8 in SSE 6.2 mph 15 mph 40.2% 0.09 in
15:49 87.4 °F 60.4 °F 29.8 in SE 6.6 mph 15 mph 40.3% 0.12 in
15:54 87.1 °F 60.4 °F 29.8 in SE 6.9 mph 14 mph 40.7% 0.13 in
15:59 86.9 °F 60.3 °F 29.8 in ESE 6.2 mph 12 mph 40.7% 0 in
16:04 86.7 °F 59.7 °F 29.8 in SE 5.9 mph 12 mph 40.2% 0 in
16:09 86.5 °F 60.8 °F 29.8 in SSE 5.9 mph 18.4 mph 42.2% 0.15 in
16:14 86 °F 61.7 °F 29.8 in SSE 5.9 mph 19.6 mph 44.3% 0.74 in
16:19 85.1 °F 61.5 °F 29.8 in SSE 9.1 mph 18.4 mph 45.3% 1 in
16:24 85.1 °F 61.7 °F 29.8 in Sur 11.4 mph 16.1 mph 45.6% 1.1 in
16:29 85.3 °F 62.1 °F 29.8 in SSE 10.2 mph 16 mph 45.8% 1.17 in
16:34 85.3 °F 61.9 °F 29.8 in SE 9.2 mph 14 mph 45.6% 1.17 in
16:39 85.3 °F 62.1 °F 29.8 in SSE 7.5 mph 14 mph 45.8% 1.19 in
16:44 85.3 °F 62.1 °F 29.8 in SSE 6.4 mph 12 mph 45.7% 1.2 in
16:49 85.6 °F 62.2 °F 29.8 in SSE 6.2 mph 12 mph 45.6% 1.15 in
16:54 85.8 °F 62.6 °F 29.8 in SSE 5.9 mph 10.4 mph 45.9% 1.13 in
16:59 86 °F 62.4 °F 29.8 in Sur 6.2 mph 14 mph 45.4% 1.29 in
17:04 85.6 °F 62.4 °F 29.8 in Sur 6.4 mph 17.3 mph 45.9% 1.43 in
17:09 85.1 °F 62.6 °F 29.8 in Sur 8.2 mph 18.4 mph 47% 1.53 in
17:14 84.9 °F 62.4 °F 29.8 in Sur 9.2 mph 18 mph 47.1% 1.4 in
17:19 84.7 °F 62.4 °F 29.8 in SSE 8.6 mph 16.1 mph 47.3% 0.76 in
17:24 84.7 °F 61.7 °F 29.8 in SSE 8.1 mph 16.1 mph 46% 0.74 in
17:29 84.6 °F 61.9 °F 29.8 in SE 8.1 mph 16 mph 46.7% 0.69 in
17:34 84.6 °F 61.2 °F 29.8 in SE 8.1 mph 11.5 mph 45.4% 0.64 in
17:39 84.9 °F 60.8 °F 29.8 in ESE 6.7 mph 13 mph 44.3% 0.62 in
17:44 84.9 °F 59.9 °F 29.8 in ESE 5.9 mph 14 mph 42.9% 0.58 in
17:49 84.6 °F 59.5 °F 29.8 in ESE 6.8 mph 14 mph 42.9% 0.58 in
17:54 84.6 °F 59.5 °F 29.8 in ESE 7.4 mph 13.5 mph 43% 0.56 in
17:59 84.7 °F 60.1 °F 29.8 in SE 6.7 mph 14 mph 43.5% 0.56 in
18:04 84.9 °F 60.4 °F 29.8 in SSE 6.4 mph 14 mph 43.9% 0.54 in
18:09 84.6 °F 61.2 °F 29.8 in SSE 6.7 mph 13 mph 45.3% 0.41 in
18:14 84.4 °F 62.2 °F 29.8 in Sur 6.9 mph 14 mph 47.7% 0.33 in
18:19 83.8 °F 63 °F 29.8 in Sur 7.3 mph 11.8 mph 49.7% 0.34 in
18:24 83.7 °F 63.3 °F 29.8 in Sur 7.6 mph 13 mph 50.8% 0.23 in
18:29 83.1 °F 62.6 °F 29.8 in SSE 7.1 mph 13 mph 50% 0.24 in
18:34 83.1 °F 62.1 °F 29.8 in SE 6.9 mph 13 mph 49% 0.25 in
18:39 82.9 °F 63 °F 29.8 in ESE 6.6 mph 15 mph 51% 0.25 in
18:44 82.2 °F 64.8 °F 29.8 in Este 6.4 mph 17.3 mph 55.9% 0.24 in
18:49 81.1 °F 65.1 °F 29.8 in ESE 7.5 mph 17 mph 58.4% 0.24 in
18:54 80.8 °F 65.5 °F 29.8 in Este 8.1 mph 16 mph 59.9% 0.26 in
18:59 80.1 °F 65.8 °F 29.8 in Este 7.8 mph 17.3 mph 61.6% 0.24 in
19:04 80.1 °F 65.8 °F 29.8 in ESE 7.6 mph 17 mph 62% 0.24 in
19:09 80.1 °F 65.5 °F 29.8 in ESE 7.6 mph 17.3 mph 61.1% 0.23 in
19:14 80.1 °F 65.3 °F 29.8 in Este 7.6 mph 15.2 mph 60.8% 0.21 in
19:19 79.7 °F 64.9 °F 29.8 in Este 7.2 mph 15 mph 60.8% 0.14 in
19:24 79.3 °F 64.9 °F 29.8 in Este 6.9 mph 16.1 mph 61.3% 0.1 in
19:29 79.3 °F 65.1 °F 29.8 in Este 7.9 mph 16.3 mph 62% 0.05 in
19:34 79 °F 65.3 °F 29.8 in Este 8.7 mph 16.1 mph 62.9% 0.03 in
19:39 78.8 °F 65.1 °F 29.8 in Este 8.7 mph 16 mph 63% 0.02 in
19:44 78.8 °F 65.5 °F 29.8 in Este 8.7 mph 15 mph 64% 0.02 in
19:48 78.6 °F 65.5 °F 29.8 in ESE 8.3 mph 13 mph 64% 0.02 in
20:49 77.9 °F 65.7 °F 29.8 in ENE 4 mph 12.7 mph 66.2% 0.02 in
20:54 77.7 °F 65.8 °F 29.8 in ENE 4 mph 13 mph 67% 0.02 in
20:59 77.7 °F 65.8 °F 29.8 in ENE 4.4 mph 8 mph 67% 0 in
21:04 77.7 °F 65.8 °F 29.8 in ENE 4.7 mph 6.9 mph 67% 0 in
21:09 77.7 °F 65.8 °F 29.8 in ENE 4.1 mph 5.9 mph 67% 0 in
21:14 77.5 °F 65.7 °F 29.8 in Este 3.6 mph 6 mph 67% 0 in
21:19 77.5 °F 65.7 °F 29.8 in ESE 2.9 mph 6 mph 67% 0 in
21:24 77.5 °F 65.5 °F 29.8 in ESE 2.4 mph 6.9 mph 66.5% 0 in
21:29 77.9 °F 65.5 °F 29.8 in SE 3.4 mph 9.7 mph 66% 0 in
21:34 78.1 °F 65.5 °F 29.8 in ESE 4 mph 10 mph 65.2% 0 in
21:39 78.1 °F 65.3 °F 29.8 in Este 4.5 mph 9 mph 65% 0 in
21:44 77.9 °F 65.1 °F 29.8 in ESE 4.7 mph 9.2 mph 65% 0 in
21:48 77.7 °F 65.3 °F 29.8 in Este 4.9 mph 9 mph 65.5% 0 in
21:59 77.5 °F 65.7 °F 29.8 in SE 5.4 mph 10.7 mph 67% 0 in
22:04 77.5 °F 66 °F 29.8 in ESE 5.4 mph 11 mph 67.9% 0 in
22:09 77.5 °F 66.4 °F 29.8 in ENE 5.4 mph 8.5 mph 68.8% 0 in
22:14 77.4 °F 66.7 °F 29.8 in Este 5.4 mph 9 mph 70.1% 0 in
22:19 77.2 °F 66.9 °F 29.8 in Este 4.7 mph 8 mph 71% 0 in
22:24 77 °F 67.3 °F 29.8 in ESE 4.3 mph 7.4 mph 71.8% 0 in
22:29 76.8 °F 67.1 °F 29.8 in ENE 4.2 mph 7 mph 72% 0 in
22:34 76.6 °F 67.3 °F 29.8 in ESE 4 mph 7 mph 72.7% 0 in
22:39 76.6 °F 67.3 °F 29.8 in NE 3.5 mph 7 mph 73% 0 in
22:44 76.6 °F 67.3 °F 29.8 in NNO 3.1 mph 6.2 mph 72.8% 0 in
22:49 76.6 °F 66.9 °F 29.8 in NO 3.1 mph 6.9 mph 72% 0 in
22:54 76.6 °F 66.9 °F 29.8 in North 3.1 mph 7 mph 72% 0 in
22:59 76.6 °F 67.1 °F 29.8 in NNE 3.4 mph 7 mph 72.5% 0 in
23:04 76.5 °F 67.3 °F 29.8 in NNE 3.6 mph 6.9 mph 73% 0 in
23:09 76.3 °F 67.5 °F 29.8 in North 3.9 mph 6.9 mph 73.9% 0 in
23:14 76.3 °F 67.6 °F 29.8 in NNO 4 mph 6.2 mph 74.4% 0 in
23:19 76.1 °F 67.6 °F 29.8 in NNO 3.8 mph 7.4 mph 75% 0 in
23:24 75.9 °F 67.6 °F 29.8 in NNO 3.6 mph 7 mph 75.4% 0 in
23:29 75.9 °F 67.8 °F 29.8 in North 3.3 mph 6.2 mph 76% 0 in
23:34 75.7 °F 67.6 °F 29.8 in NNE 3.1 mph 6.4 mph 76% 0 in
23:39 75.7 °F 67.6 °F 29.8 in NNE 3.4 mph 7 mph 76% 0 in
23:44 75.6 °F 67.8 °F 29.8 in NNE 3.6 mph 6 mph 76.8% 0 in
23:49 75.6 °F 67.8 °F 29.8 in North 2.9 mph 5 mph 77% 0 in
23:54 75.7 °F 68 °F 29.8 in NO 2.4 mph 5 mph 77% 0 in
23:59 75.7 °F 67.6 °F 29.8 in ONO 2.1 mph 5.2 mph 76.2% 0 in
Murcia-Puente Tocinos, España
Compliments of Weather Underground - 2.75 mb

La estación de MeteoMurcia.com, publica sus datos en los siguientes proyectos:

Weather Underground PWS IMURCIAP2 Meteoclimatic www.awekas.at

W3Counter
Web Analytics